Time;durP1;ratioP1;P1;durP2;ratioP2;P2;SDS_P1;SDS_P2;PMS_P1;PMS_P2;Temp;Humidity;BMP_temperature;BMP_pressure;BME280_temperature;BME280_humidity;BME280_pressure;Samples;Min_cycle;Max_cycle;Signal;HPM_P1;HPM_P2
2021/11/01 00:00:11;;;;;;;26.87;16.10;;;;;;;11.95;91.45;99281.03;5148810;27;20546;-79
2021/11/01 00:02:37;;;;;;;24.98;16.77;;;;;;;11.72;93.03;99268.88;5131388;27;20103;-79
2021/11/01 00:05:03;;;;;;;26.35;15.55;;;;;;;11.65;93.76;99293.97;5130450;27;20022;-80
2021/11/01 00:07:28;;;;;;;26.92;16.90;;;;;;;11.60;94.31;99310.59;5148263;27;20442;-80
2021/11/01 00:09:54;;;;;;;24.57;16.07;;;;;;;11.69;94.99;99327.28;5148944;27;20026;-81
2021/11/01 00:12:20;;;;;;;24.83;14.25;;;;;;;11.64;95.61;99319.06;5148903;27;20041;-81
2021/11/01 00:14:46;;;;;;;23.30;15.15;;;;;;;11.59;96.08;99317.00;5130682;27;20372;-82
2021/11/01 00:17:11;;;;;;;23.38;15.35;;;;;;;11.51;97.06;99309.16;5149117;27;20065;-84
2021/11/01 00:19:37;;;;;;;21.07;15.07;;;;;;;11.61;96.71;99326.47;5113915;27;20363;-82
2021/11/01 00:22:03;;;;;;;20.83;14.18;;;;;;;11.66;95.84;99341.88;5131294;27;20777;-84
2021/11/01 00:24:28;;;;;;;21.50;14.77;;;;;;;11.76;94.82;99322.75;5148747;27;20039;-82
2021/11/01 00:26:54;;;;;;;22.43;14.77;;;;;;;11.73;93.78;99313.31;5130503;27;20030;-82
2021/11/01 00:29:19;;;;;;;25.93;15.60;;;;;;;11.75;93.98;99303.22;5130379;27;20102;-82
2021/11/01 00:31:45;;;;;;;25.80;15.03;;;;;;;11.68;93.80;99291.69;5113201;27;20030;-81
2021/11/01 00:34:10;;;;;;;24.95;14.40;;;;;;;11.77;93.61;99297.66;5148264;27;20050;-80
2021/11/01 00:36:36;;;;;;;25.73;15.07;;;;;;;11.74;93.92;99309.59;5130312;27;20031;-80
2021/11/01 00:39:02;;;;;;;25.20;15.23;;;;;;;11.70;94.37;99302.19;5151028;27;20358;-80
2021/11/01 00:41:29;;;;;;;25.27;14.88;;;;;;;11.67;94.42;99302.59;5134345;27;20031;-81
2021/11/01 00:43:54;;;;;;;21.40;13.73;;;;;;;11.72;94.70;99319.66;5134069;27;20022;-80
2021/11/01 00:46:20;;;;;;;21.80;15.17;;;;;;;11.80;94.35;99335.53;5152814;27;20054;-81
2021/11/01 00:48:45;;;;;;;22.10;14.50;;;;;;;11.74;94.28;99333.66;5117066;27;20371;-79
2021/11/01 00:51:11;;;;;;;22.83;14.40;;;;;;;11.75;94.75;99343.34;5117111;27;20852;-81
2021/11/01 00:53:44;;;;;;;22.87;13.70;;;;;;;11.80;95.15;99350.75;5134119;27;20311;-81
2021/11/01 00:56:09;;;;;;;23.52;13.48;;;;;;;11.83;95.16;99356.50;5152735;27;20043;-80
2021/11/01 00:58:35;;;;;;;20.33;13.47;;;;;;;11.75;95.03;99348.69;5134110;27;20054;-81
2021/11/01 01:01:01;;;;;;;25.55;14.60;;;;;;;11.75;95.38;99348.69;5133981;27;20060;-80
2021/11/01 01:03:27;;;;;;;20.08;14.02;;;;;;;11.82;94.94;99349.50;5133782;27;20538;-81
2021/11/01 01:05:53;;;;;;;21.00;13.32;;;;;;;11.86;94.97;99357.94;5133631;27;20041;-81
2021/11/01 01:08:20;;;;;;;23.83;13.75;;;;;;;11.90;94.99;99358.38;5133410;27;20351;-82
2021/11/01 01:10:47;;;;;;;19.90;13.50;;;;;;;11.98;94.68;99348.28;5116696;27;20052;-81
2021/11/01 01:13:14;;;;;;;15.65;11.25;;;;;;;11.94;94.24;99331.03;5133520;27;20154;-81
2021/11/01 01:15:55;;;;;;;;;;;;;;;11.94;94.69;99322.16;5134524;27;20405;-81
2021/11/01 01:18:26;;;;;;;18.98;11.98;;;;;;;11.92;94.66;99326.91;5116547;27;19915;-82
2021/11/01 01:20:52;;;;;;;19.08;12.23;;;;;;;11.98;94.54;99328.75;5134355;27;20349;-83
2021/11/01 01:23:18;;;;;;;17.30;11.97;;;;;;;12.06;93.97;99335.75;5116654;27;20034;-82
2021/11/01 01:25:46;;;;;;;18.45;12.85;;;;;;;12.04;93.75;99331.44;5116778;27;20039;-83
2021/11/01 01:28:14;;;;;;;17.95;12.00;;;;;;;12.07;93.80;99346.25;5152253;27;20078;-85
2021/11/01 01:30:41;;;;;;;23.95;11.93;;;;;;;12.05;93.20;99326.91;5134096;27;20038;-84
2021/11/01 01:33:10;;;;;;;23.88;12.85;;;;;;;12.04;93.31;99328.75;5134635;27;20041;-87
2021/11/01 01:35:40;;;;;;;21.85;12.25;;;;;;;11.97;93.89;99322.59;5134468;27;20456;-87
2021/11/01 01:38:09;;;;;;;21.67;12.80;;;;;;;11.88;94.36;99331.03;5134473;27;20042;-88
2021/11/01 01:40:35;;;;;;;18.88;13.02;;;;;;;11.93;94.64;99355.28;5134551;27;20041;-88
2021/11/01 01:43:04;;;;;;;16.60;11.90;;;;;;;12.04;94.43;99376.91;5134801;27;20360;-89
2021/11/01 01:45:31;;;;;;;21.15;12.23;;;;;;;12.00;94.23;99366.81;5133990;27;20038;-88
2021/11/01 01:47:57;;;;;;;18.20;12.10;;;;;;;12.00;94.49;99359.63;5152382;27;20042;-87
2021/11/01 01:50:23;;;;;;;18.85;11.60;;;;;;;12.03;94.31;99356.53;5115804;27;20034;-86
2021/11/01 01:52:49;;;;;;;18.33;12.43;;;;;;;12.04;94.93;99357.38;5133876;27;20078;-84
2021/11/01 01:55:15;;;;;;;17.30;10.93;;;;;;;12.03;95.42;99353.88;5133553;27;20109;-85
2021/11/01 01:57:40;;;;;;;15.77;11.52;;;;;;;12.07;95.54;99367.66;5116312;27;20465;-84
2021/11/01 02:00:17;;;;;;;16.93;11.10;;;;;;;12.13;95.69;99395.44;5133174;27;20468;-83
2021/11/01 02:02:42;;;;;;;18.13;11.15;;;;;;;12.01;96.56;99384.50;5116004;27;20094;-83
2021/11/01 02:05:08;;;;;;;16.23;10.90;;;;;;;12.07;96.97;99396.25;5132862;27;20443;-82
2021/11/01 02:07:43;;;;;;;15.38;8.68;;;;;;;12.16;96.73;99385.13;5115336;27;20066;-81
2021/11/01 02:10:14;;;;;;;13.55;7.95;;;;;;;12.16;96.88;99398.50;5132661;27;20027;-81
2021/11/01 02:12:49;;;;;;;12.77;6.90;;;;;;;12.21;96.15;99406.75;5149756;27;20348;-81
2021/11/01 02:15:21;;;;;;;11.80;6.03;;;;;;;12.25;95.89;99401.81;5115406;27;20367;-81
2021/11/01 02:17:48;;;;;;;12.63;7.00;;;;;;;12.28;95.97;99395.22;5150891;27;20041;-82
2021/11/01 02:20:46;;;;;;;12.68;6.28;;;;;;;12.23;95.19;99385.97;5132615;27;20034;-81
2021/11/01 02:23:19;;;;;;;17.45;4.35;;;;;;;12.15;94.69;99364.78;5088786;27;20150;-81
2021/11/01 02:25:47;;;;;;;12.40;4.57;;;;;;;12.09;94.37;99362.91;5150971;27;20034;-82
2021/11/01 02:28:18;;;;;;;9.32;3.50;;;;;;;12.11;93.91;99357.38;5115335;27;20122;-82
2021/11/01 02:30:44;;;;;;;11.82;2.83;;;;;;;12.00;94.01;99342.75;5115193;27;20038;-82
2021/11/01 02:33:13;;;;;;;12.25;2.70;;;;;;;11.97;94.42;99346.66;5132198;27;20467;-82
2021/11/01 02:35:39;;;;;;;9.23;2.67;;;;;;;11.86;94.43;99333.06;5115116;27;20039;-81
2021/11/01 02:38:05;;;;;;;13.80;2.90;;;;;;;11.89;94.73;99349.53;5132159;27;20027;-81
2021/11/01 02:40:31;;;;;;;9.85;2.50;;;;;;;11.91;94.94;99352.81;5132319;27;20383;-82
2021/11/01 02:42:57;;;;;;;10.50;3.40;;;;;;;11.91;95.11;99344.78;5132243;27;20037;-82
2021/11/01 02:45:24;;;;;;;7.50;2.35;;;;;;;11.87;94.54;99337.34;5114707;27;20190;-82
2021/11/01 02:47:50;;;;;;;8.48;2.33;;;;;;;11.81;94.64;99331.81;5131820;27;20460;-83
2021/11/01 02:50:17;;;;;;;16.25;2.75;;;;;;;11.71;93.48;99303.84;5131820;27;20041;-82
2021/11/01 02:52:43;;;;;;;15.68;3.00;;;;;;;11.71;93.10;99302.00;5150187;27;20099;-81
2021/11/01 02:55:11;;;;;;;18.42;4.00;;;;;;;11.71;92.99;99304.66;5150001;27;20023;-82
2021/11/01 02:57:37;;;;;;;11.13;2.63;;;;;;;11.66;93.32;99301.78;5150007;27;20435;-82
2021/11/01 03:00:04;;;;;;;22.05;3.33;;;;;;;11.67;93.19;99314.09;5114528;27;20027;-82
2021/11/01 03:02:30;;;;;;;15.60;2.70;;;;;;;11.69;92.60;99306.72;5131653;27;20053;-83
2021/11/01 03:04:56;;;;;;;10.10;3.47;;;;;;;11.65;92.71;99304.66;5131580;27;20535;-81
2021/11/01 03:07:23;;;;;;;20.35;3.20;;;;;;;11.51;93.15;99298.47;5131509;27;20031;-82
2021/11/01 03:09:49;;;;;;;17.67;3.28;;;;;;;11.50;93.14;99302.19;5114377;27;20092;-82
2021/11/01 03:12:17;;;;;;;28.45;3.42;;;;;;;11.49;93.09;99295.16;5114522;27;20030;-81
2021/11/01 03:14:48;;;;;;;20.67;3.33;;;;;;;11.52;93.21;99300.09;5149430;27;20038;-81
2021/11/01 03:17:18;;;;;;;11.35;3.13;;;;;;;11.49;92.96;99290.63;5131894;27;20363;-81
2021/11/01 03:19:48;;;;;;;15.02;3.88;;;;;;;11.40;93.21;99279.34;5114488;27;20187;-81
2021/11/01 03:22:14;;;;;;;13.38;2.30;;;;;;;11.39;93.28;99288.38;5114580;27;20073;-81
2021/11/01 03:24:44;;;;;;;15.82;3.47;;;;;;;11.30;93.47;99297.59;5149228;27;20348;-81
2021/11/01 03:27:14;;;;;;;24.25;3.70;;;;;;;11.33;93.85;99307.91;5114322;27;20035;-81
2021/11/01 03:29:41;;;;;;;15.98;2.80;;;;;;;11.25;93.96;99305.41;5131046;27;20480;-80
2021/11/01 03:32:07;;;;;;;27.27;3.72;;;;;;;11.25;94.15;99308.06;5131135;27;20123;-80
2021/11/01 03:34:33;;;;;;;13.55;3.15;;;;;;;11.28;94.47;99323.69;5130541;27;20391;-79
2021/11/01 03:37:08;;;;;;;14.30;3.20;;;;;;;11.24;94.27;99317.13;5149519;27;20090;-80
2021/11/01 03:39:34;;;;;;;17.73;2.33;;;;;;;11.17;94.47;99325.13;5131392;27;20030;-80
2021/11/01 03:42:01;;;;;;;21.80;2.63;;;;;;;11.20;94.62;99347.94;5133198;27;20022;-80
2021/11/01 03:44:29;;;;;;;;;;;;;;;11.22;94.18;99337.88;5114399;27;20550;-80
2021/11/01 03:46:57;;;;;;;16.45;2.33;;;;;;;11.17;94.34;99335.00;5149232;27;19914;-80
2021/11/01 03:49:28;;;;;;;12.93;2.83;;;;;;;10.99;94.70;99328.34;5130645;27;20066;-81
2021/11/01 03:54:55;;;;;;;14.88;2.47;;;;;;;10.94;95.41;99340.66;5047916;28;20060;-80
2021/11/01 03:57:21;;;;;;;15.07;2.70;;;;;;;11.00;95.54;99355.84;5131334;27;20685;-80
2021/11/01 03:59:48;;;;;;;26.17;4.32;;;;;;;11.04;94.94;99359.78;5148968;27;20045;-80
2021/11/01 04:02:18;;;;;;;18.17;4.40;;;;;;;10.96;95.21;99343.97;5130917;27;20030;-80
2021/11/01 04:04:48;;;;;;;17.95;3.45;;;;;;;10.89;95.74;99359.94;5113249;27;20047;-79
2021/11/01 04:07:14;;;;;;;13.63;2.53;;;;;;;10.92;95.68;99367.53;5148171;27;20478;-80
2021/11/01 04:09:40;;;;;;;;;;;;;;;10.88;95.90;99355.59;5131098;27;20083;-80
2021/11/01 04:12:06;;;;;;;;;;;;;;;10.78;96.22;99363.16;5131027;27;19907;-80
2021/11/01 04:14:39;;;;;;;15.15;2.22;;;;;;;10.75;96.63;99374.25;5119650;27;20265;-80
2021/11/01 04:17:11;;;;;;;19.17;2.45;;;;;;;10.72;97.06;99379.97;5155992;27;20117;-80
2021/11/01 04:19:48;;;;;;;17.83;2.83;;;;;;;10.71;97.43;99389.00;5156311;27;20030;-79
2021/11/01 04:22:14;;;;;;;16.92;2.67;;;;;;;10.66;97.50;99396.78;5155675;27;20081;-79
2021/11/01 04:24:40;;;;;;;16.42;2.75;;;;;;;10.65;97.97;99400.44;5155314;27;20110;-80
2021/11/01 04:27:05;;;;;;;13.02;2.40;;;;;;;10.63;98.08;99394.47;5137198;27;20122;-80
2021/11/01 04:29:33;;;;;;;23.97;5.50;;;;;;;10.60;98.06;99386.88;5137432;27;20045;-81
2021/11/01 04:32:42;;;;;;;28.02;4.88;;;;;;;10.60;98.06;99387.69;5137199;27;20034;-80
2021/11/01 04:35:00;;;;;;;14.18;2.85;;;;;;;10.56;98.19;99395.28;5128326;27;20042;-79
2021/11/01 04:37:26;;;;;;;21.67;2.63;;;;;;;10.56;98.12;99391.78;5155316;27;20301;-80
2021/11/01 04:40:10;;;;;;;13.27;3.88;;;;;;;10.56;98.45;99402.47;5120015;27;20030;-80
2021/11/01 04:53:42;;;;;;;17.67;2.97;;;;;;;10.48;98.64;99429.28;5136096;27;20050;-79
2021/11/01 04:56:07;;;;;;;13.20;2.88;;;;;;;10.51;98.98;99459.09;5155211;27;20081;-79
2021/11/01 04:58:34;;;;;;;21.05;3.33;;;;;;;10.51;98.78;99453.75;5136931;27;20121;-79
2021/11/01 05:01:01;;;;;;;18.33;3.55;;;;;;;10.46;98.70;99448.16;5155245;27;20058;-79
2021/11/01 05:03:39;;;;;;;19.27;3.55;;;;;;;10.43;99.06;99451.22;5154669;27;20068;-80
2021/11/01 05:06:05;;;;;;;22.80;3.83;;;;;;;10.44;99.45;99463.56;5154628;27;20375;-80
2021/11/01 05:08:47;;;;;;;16.38;4.55;;;;;;;10.44;99.10;99452.03;5137029;27;20038;-79
2021/11/01 05:11:27;;;;;;;15.98;2.88;;;;;;;10.34;99.35;99444.38;5156473;27;20122;-79
2021/11/01 05:13:53;;;;;;;26.20;4.00;;;;;;;10.42;99.41;99460.25;5138055;27;20041;-79
2021/11/01 05:16:30;;;;;;;23.48;3.60;;;;;;;10.37;99.50;99456.50;5138281;27;20534;-80
2021/11/01 05:19:07;;;;;;;12.80;2.50;;;;;;;10.32;99.57;99454.41;5137989;27;20144;-79
2021/11/01 05:21:38;;;;;;;24.65;4.45;;;;;;;10.28;99.63;99450.44;5156225;27;20031;-79
2021/11/01 05:24:09;;;;;;;21.10;4.60;;;;;;;10.25;99.51;99459.63;5154971;27;20039;-78
2021/11/01 05:29:29;;;;;;;15.48;4.10;;;;;;;10.30;99.38;99475.94;5128399;27;20110;-78
2021/11/01 05:31:57;;;;;;;15.05;3.60;;;;;;;10.23;99.59;99453.69;5134668;27;20023;-78
2021/11/01 05:34:24;;;;;;;16.55;3.13;;;;;;;10.27;99.72;99468.28;5134537;27;20117;-78
2021/11/01 05:36:50;;;;;;;16.83;3.80;;;;;;;10.30;99.31;99469.75;5134389;27;20448;-80
2021/11/01 05:39:15;;;;;;;24.87;3.50;;;;;;;10.32;99.49;99481.91;5134058;27;20058;-79
2021/11/01 05:41:41;;;;;;;19.53;3.63;;;;;;;10.34;99.08;99471.03;5134567;27;20041;-79
2021/11/01 05:44:08;;;;;;;13.30;4.13;;;;;;;10.33;98.99;99466.75;5133924;27;20126;-79
2021/11/01 05:46:38;;;;;;;26.55;4.78;;;;;;;10.28;99.17;99472.66;5116022;27;20299;-79
2021/11/01 05:49:06;;;;;;;17.95;5.13;;;;;;;10.31;99.32;99484.78;5150297;27;20034;-80
2021/11/01 05:51:34;;;;;;;20.30;3.25;;;;;;;10.24;99.57;99484.66;5131584;27;20563;-79
2021/11/01 05:54:04;;;;;;;18.60;3.97;;;;;;;10.20;99.58;99482.56;5149258;27;20045;-79
2021/11/01 06:02:17;;;;;;;24.80;5.55;;;;;;;10.18;99.87;99498.75;5126804;27;20054;-80
2021/11/01 06:15:02;;;;;;;13.57;3.40;;;;;;;10.15;99.73;99505.31;5150563;27;20038;-79
2021/11/01 06:17:28;;;;;;;14.93;4.07;;;;;;;10.06;99.94;99498.44;5150692;27;20102;-79
2021/11/01 06:19:53;;;;;;;22.20;5.03;;;;;;;10.05;100.00;99518.13;5115407;27;20054;-80
2021/11/01 06:22:18;;;;;;;16.57;4.33;;;;;;;10.05;100.00;99517.31;5132427;27;20027;-79
2021/11/01 06:27:28;;;;;;;15.80;3.50;;;;;;;10.08;100.00;99511.59;5150685;27;20363;-79
2021/11/01 06:46:02;;;;;;;19.23;3.15;;;;;;;10.01;100.00;99527.53;5131833;27;20053;-79
2021/11/01 06:56:35;;;;;;;25.30;3.80;;;;;;;9.95;99.60;99514.97;5133054;27;20420;-78
2021/11/01 07:15:23;;;;;;;18.05;4.28;;;;;;;9.97;98.94;99510.25;5131084;27;20069;-81
2021/11/01 07:20:52;;;;;;;24.77;4.72;;;;;;;10.04;98.61;99513.78;5129964;27;20033;-79
2021/11/01 08:20:43;;;;;;;20.83;4.72;;;;;;;10.23;97.08;99531.06;5129160;27;20031;-80
2021/11/01 08:28:56;;;;;;;15.30;3.92;;;;;;;10.15;97.49;99544.50;5129548;27;20039;-80
2021/11/01 08:34:23;;;;;;;10.90;3.90;;;;;;;10.10;97.87;99550.38;5127232;27;20383;-79
2021/11/01 08:39:27;;;;;;;17.48;4.10;;;;;;;10.34;97.08;99564.41;5130349;27;20049;-80
2021/11/01 08:42:21;;;;;;;17.48;4.43;;;;;;;10.28;96.97;99554.50;5115341;27;20038;-80
2021/11/01 09:01:25;;;;;;;21.20;4.10;;;;;;;10.56;95.83;99526.06;5143323;27;20034;-80
2021/11/01 09:01:32;;;;;;;15.85;5.30;;;;;;;10.52;95.07;99503.44;5152253;27;20451;-80
2021/11/01 09:20:02;;;;;;;17.80;3.88;;;;;;;10.59;93.82;99511.50;5152060;27;20028;-79
2021/11/01 09:28:05;;;;;;;17.77;4.70;;;;;;;10.59;93.61;99514.16;5151914;27;20038;-79
2021/11/01 09:35:42;;;;;;;23.60;5.90;;;;;;;10.71;93.65;99525.13;5151836;27;20061;-81
2021/11/01 09:36:19;;;;;;;15.85;4.70;;;;;;;10.82;92.17;99513.94;5133372;27;20041;-79
2021/11/01 09:39:00;;;;;;;18.00;5.50;;;;;;;10.75;92.06;99484.50;5116512;27;20035;-79
2021/11/01 09:41:27;;;;;;;18.27;4.97;;;;;;;10.68;92.27;99486.31;5133179;27;20038;-79
2021/11/01 09:43:57;;;;;;;13.60;4.78;;;;;;;10.80;92.29;99515.97;5151258;27;20022;-80
2021/11/01 09:46:25;;;;;;;21.15;3.78;;;;;;;10.81;92.03;99509.59;5116014;27;20035;-80
2021/11/01 09:49:03;;;;;;;11.80;3.55;;;;;;;10.99;91.55;99525.13;5116117;27;20448;-79
2021/11/01 09:51:29;;;;;;;18.92;3.92;;;;;;;11.03;90.78;99517.56;5116039;27;20094;-80
2021/11/01 09:53:56;;;;;;;19.37;3.90;;;;;;;10.88;90.76;99506.97;5151090;27;20027;-80
2021/11/01 09:56:40;;;;;;;14.65;5.05;;;;;;;10.88;90.90;99518.47;5151337;27;20026;-79
2021/11/01 09:59:11;;;;;;;14.10;3.45;;;;;;;10.89;90.64;99524.66;5133087;27;20356;-79
2021/11/01 10:01:42;;;;;;;9.05;3.30;;;;;;;11.09;90.41;99541.63;5151186;27;20107;-79
2021/11/01 10:04:22;;;;;;;12.80;3.55;;;;;;;11.12;89.66;99535.94;5132650;27;20034;-80
2021/11/01 10:07:15;;;;;;;16.08;4.20;;;;;;;10.95;89.53;99513.19;5150694;27;20030;-79
2021/11/01 10:09:41;;;;;;;12.75;4.07;;;;;;;10.93;89.66;99504.53;5115678;27;20082;-80
2021/11/01 10:12:30;;;;;;;12.73;3.38;;;;;;;11.08;89.69;99520.47;5150544;27;20034;-80
2021/11/01 10:18:06;;;;;;;16.48;4.18;;;;;;;10.95;88.50;99498.00;5150667;27;20050;-79
2021/11/01 10:20:34;;;;;;;22.50;4.00;;;;;;;10.97;88.57;99503.16;5150613;27;20046;-80
2021/11/01 10:23:11;;;;;;;10.52;3.28;;;;;;;10.98;88.68;99507.47;5132319;27;20538;-80
2021/11/01 10:25:37;;;;;;;18.42;3.72;;;;;;;11.06;88.67;99519.84;5132428;27;20462;-80
2021/11/01 10:28:03;;;;;;;19.23;5.20;;;;;;;11.12;88.17;99519.91;5132086;27;20019;-80
2021/11/01 10:30:32;;;;;;;12.32;2.92;;;;;;;11.41;87.04;99537.53;5150729;27;20031;-80
2021/11/01 10:33:03;;;;;;;10.45;3.30;;;;;;;11.75;85.35;99545.69;5150810;27;20235;-80
2021/11/01 10:35:35;;;;;;;10.40;3.10;;;;;;;11.97;84.50;99549.94;5132111;27;20035;-79
2021/11/01 10:38:34;;;;;;;10.75;2.83;;;;;;;12.06;83.54;99541.72;5132041;27;20030;-80
2021/11/01 10:41:14;;;;;;;11.30;3.65;;;;;;;12.28;83.20;99553.13;5115302;27;20030;-80
2021/11/01 11:12:00;;;;;;;8.48;2.03;;;;;;;12.29;78.50;99428.97;5149785;27;20087;-79
2021/11/01 11:14:37;;;;;;;16.90;2.95;;;;;;;12.48;77.86;99448.72;5131071;27;20035;-80
2021/11/01 11:20:00;;;;;;;11.38;3.47;;;;;;;12.63;76.92;99441.31;5131440;27;20099;-80
2021/11/01 11:33:16;;;;;;;8.88;2.05;;;;;;;12.36;75.28;99386.97;5149274;27;20311;-79
2021/11/01 11:39:18;;;;;;;10.85;2.20;;;;;;;12.32;75.17;99399.16;5131210;27;20550;-80
2021/11/01 11:47:39;;;;;;;8.60;2.00;;;;;;;12.93;71.87;99377.41;5130792;27;20031;-79
2021/11/01 11:50:18;;;;;;;8.43;2.22;;;;;;;12.85;73.18;99407.06;5130738;27;20046;-80
2021/11/01 11:52:45;;;;;;;11.18;1.80;;;;;;;13.00;72.67;99406.84;5149193;27;20027;-79
2021/11/01 11:55:24;;;;;;;5.07;2.08;;;;;;;13.18;71.81;99406.16;5148696;27;20169;-80
2021/11/01 11:57:58;;;;;;;8.88;2.20;;;;;;;13.07;72.28;99389.72;5131329;27;20031;-80
2021/11/01 12:00:27;;;;;;;10.13;2.03;;;;;;;12.74;72.54;99346.16;5130741;27;20050;-80
2021/11/01 12:02:53;;;;;;;10.57;3.00;;;;;;;12.49;74.40;99370.91;5113525;27;20034;-79
2021/11/01 12:05:50;;;;;;;9.48;3.03;;;;;;;12.44;74.54;99360.81;5130425;27;20029;-79
2021/11/01 12:08:27;;;;;;;8.32;2.15;;;;;;;12.40;74.13;99361.44;5130207;27;20090;-80
2021/11/01 12:19:05;;;;;;;8.98;2.25;;;;;;;12.33;75.01;99369.47;5130496;27;20436;-80
2021/11/01 12:21:34;;;;;;;12.23;2.22;;;;;;;12.34;75.66;99381.00;5148762;27;20023;-80
2021/11/01 12:24:01;;;;;;;3.47;2.05;;;;;;;12.35;75.47;99378.13;5148401;27;20034;-78
2021/11/01 12:26:27;;;;;;;8.85;3.30;;;;;;;12.14;75.70;99355.09;5113411;27;20035;-79
2021/11/01 12:28:55;;;;;;;8.85;1.73;;;;;;;12.29;75.55;99367.41;5130035;27;20037;-80
2021/11/01 12:31:22;;;;;;;4.85;1.80;;;;;;;12.23;75.33;99358.38;5130404;27;20062;-80
2021/11/01 12:33:59;;;;;;;12.02;2.05;;;;;;;12.33;75.73;99377.50;5113459;27;20125;-80
2021/11/01 12:36:31;;;;;;;7.93;2.53;;;;;;;12.15;76.18;99356.75;5134737;27;20407;-79
2021/11/01 12:39:16;;;;;;;9.13;1.88;;;;;;;11.90;75.87;99329.78;5134534;27;20500;-79
2021/11/01 12:41:56;;;;;;;12.82;1.85;;;;;;;11.99;76.45;99365.19;5134582;27;20507;-80
2021/11/01 12:58:27;;;;;;;11.45;1.98;;;;;;;12.01;77.14;99385.34;5134119;27;20482;-80
2021/11/01 13:00:54;;;;;;;7.53;1.88;;;;;;;12.15;76.72;99406.72;5134341;27;20090;-80
2021/11/01 13:03:21;;;;;;;10.65;3.15;;;;;;;12.13;76.46;99393.59;5134153;27;20483;-80
2021/11/01 13:06:02;;;;;;;9.48;1.90;;;;;;;11.97;76.81;99372.59;5117154;27;20034;-79
2021/11/01 13:08:32;;;;;;;10.20;2.40;;;;;;;12.19;77.01;99413.34;5134165;27;20026;-80
2021/11/01 13:11:02;;;;;;;8.32;2.92;;;;;;;12.20;76.61;99402.44;5134186;27;20027;-80
2021/11/01 13:19:15;;;;;;;9.30;2.35;;;;;;;13.18;72.39;99444.50;5151957;27;20045;-79
2021/11/01 13:22:03;;;;;;;10.48;2.65;;;;;;;13.14;71.95;99405.75;5134070;27;20041;-80
2021/11/01 13:24:44;;;;;;;6.65;1.77;;;;;;;12.70;71.85;99356.44;5116283;27;20043;-79
2021/11/01 13:27:29;;;;;;;7.57;1.52;;;;;;;12.59;72.43;99373.97;5151850;27;20035;-79
2021/11/01 13:37:45;;;;;;;;;;;;;;;12.30;72.00;99361.88;5152084;27;20464;-79
2021/11/01 13:40:13;;;;;;;4.65;1.67;;;;;;;12.23;71.95;99361.88;5133318;27;20228;-80
2021/11/01 13:42:51;;;;;;;6.07;1.67;;;;;;;11.99;71.53;99325.88;5133388;27;20054;-80
2021/11/01 13:45:17;;;;;;;3.83;1.60;;;;;;;12.11;72.04;99358.19;5132296;27;20042;-80
2021/11/01 13:47:49;;;;;;;7.22;1.90;;;;;;;12.34;71.35;99395.22;5115543;27;20034;-79
2021/11/01 13:50:17;;;;;;;6.65;2.05;;;;;;;12.32;70.69;99359.81;5115867;27;20043;-80
2021/11/01 13:52:45;;;;;;;6.07;1.75;;;;;;;12.34;70.26;99365.78;5151429;27;20031;-80
2021/11/01 13:57:51;;;;;;;3.15;1.83;;;;;;;12.11;70.46;99341.31;5151435;27;20014;-79
2021/11/01 14:00:56;;;;;;;6.57;2.05;;;;;;;11.94;70.34;99340.88;5115574;27;20444;-80
2021/11/01 14:11:21;;;;;;;7.28;3.08;;;;;;;11.93;71.38;99360.66;5151130;27;20456;-80
2021/11/01 14:14:00;;;;;;;2.95;1.80;;;;;;;11.92;71.17;99375.06;5150355;27;20035;-79
2021/11/01 14:19:24;;;;;;;5.25;1.90;;;;;;;11.78;71.72;99361.63;5132673;27;20326;-79
2021/11/01 14:30:43;;;;;;;9.52;1.95;;;;;;;11.64;72.36;99397.41;5132282;27;20045;-80
2021/11/01 14:36:19;;;;;;;4.43;1.88;;;;;;;11.61;72.51;99390.63;5150469;27;20118;-81
2021/11/01 15:14:35;;;;;;;9.05;3.83;;;;;;;11.33;74.34;99429.97;5149372;27;20046;-80
2021/11/01 15:16:49;;;;;;;5.03;2.85;;;;;;;11.34;73.97;99434.31;5138082;27;20043;-80
2021/11/01 15:24:25;;;;;;;4.60;2.10;;;;;;;11.34;74.05;99431.63;5149379;27;20027;-79
2021/11/01 15:27:15;;;;;;;6.63;2.42;;;;;;;11.33;73.97;99428.16;5114019;27;20035;-80
2021/11/01 15:35:21;;;;;;;6.97;2.70;;;;;;;11.09;74.73;99410.75;5130761;27;20070;-80
2021/11/01 16:18:42;;;;;;;4.82;2.88;;;;;;;10.19;79.00;99491.63;5130833;27;20386;-80
2021/11/01 16:21:08;;;;;;;7.75;3.45;;;;;;;10.10;79.10;99499.72;5130753;27;20376;-80
2021/11/01 16:23:34;;;;;;;9.63;3.33;;;;;;;10.03;79.18;99492.69;5148433;27;20034;-80
2021/11/01 16:26:08;;;;;;;7.70;4.15;;;;;;;10.10;78.98;99504.22;5113559;27;20026;-80
2021/11/01 16:28:34;;;;;;;11.68;4.05;;;;;;;10.02;79.02;99497.19;5113286;27;20031;-80
2021/11/01 16:33:53;;;;;;;12.90;4.47;;;;;;;10.06;79.31;99514.44;5148525;27;20026;-80
2021/11/01 16:36:42;;;;;;;6.53;3.10;;;;;;;10.08;79.04;99527.59;5130749;27;20062;-81
2021/11/01 16:39:09;;;;;;;8.90;3.38;;;;;;;9.95;79.38;99509.63;5130427;27;20027;-80
2021/11/01 16:41:36;;;;;;;6.13;3.08;;;;;;;10.00;79.02;99515.22;5149054;27;20035;-80
2021/11/01 16:44:14;;;;;;;;;;;;;;;9.92;79.52;99507.31;5130785;27;20050;-80
2021/11/01 16:46:42;;;;;;;5.80;2.97;;;;;;;9.88;79.39;99511.38;5130496;27;19970;-79
2021/11/01 16:49:09;;;;;;;10.43;3.35;;;;;;;9.88;79.84;99514.88;5130650;27;20018;-80
2021/11/01 16:51:36;;;;;;;7.25;3.50;;;;;;;9.81;80.10;99521.13;5130188;27;20527;-81
2021/11/01 16:54:03;;;;;;;8.52;3.97;;;;;;;9.78;80.06;99522.34;5112739;27;20130;-80
2021/11/01 16:59:12;;;;;;;7.10;3.30;;;;;;;9.77;80.35;99530.53;5130320;27;20117;-80
2021/11/01 17:01:42;;;;;;;8.55;2.67;;;;;;;9.70;80.75;99531.28;5130369;27;20035;-80
2021/11/01 17:04:11;;;;;;;7.13;3.75;;;;;;;9.68;81.23;99545.78;5130138;27;20387;-80
2021/11/01 17:09:22;;;;;;;6.60;3.80;;;;;;;9.44;82.08;99526.44;5130283;27;20421;-81
2021/11/01 17:22:53;;;;;;;9.23;4.35;;;;;;;9.25;83.17;99551.78;5133508;27;20030;-80
2021/11/01 17:25:25;;;;;;;12.32;4.22;;;;;;;9.11;83.93;99552.59;5133561;27;20034;-80
2021/11/01 17:30:57;;;;;;;6.22;3.67;;;;;;;9.05;83.73;99558.66;5151897;27;20046;-80
2021/11/01 18:24:49;;;;;;;9.32;4.18;;;;;;;8.99;84.80;99585.97;5151570;27;20034;-80
2021/11/01 18:42:09;;;;;;;7.63;3.15;;;;;;;8.58;87.34;99626.25;5132223;27;20121;-80
2021/11/01 18:45:28;;;;;;;6.35;3.67;;;;;;;8.61;87.18;99633.88;5114859;27;20046;-80
2021/11/01 18:50:52;;;;;;;11.18;3.78;;;;;;;8.56;87.52;99646.88;5151095;27;20170;-81
2021/11/01 18:53:14;;;;;;;5.80;3.03;;;;;;;8.56;87.48;99644.22;5150808;27;20083;-82
2021/11/01 18:55:49;;;;;;;7.97;3.45;;;;;;;8.49;87.29;99627.31;5116138;27;20038;-83
2021/11/01 18:58:21;;;;;;;8.18;3.05;;;;;;;8.47;87.21;99634.63;5116959;27;20066;-82
2021/11/01 19:00:47;;;;;;;9.43;3.70;;;;;;;8.47;87.38;99646.09;5151539;27;20333;-82
2021/11/01 19:03:16;;;;;;;12.98;5.45;;;;;;;8.39;87.87;99632.81;5133131;27;20042;-82
2021/11/01 19:05:57;;;;;;;10.00;4.00;;;;;;;8.31;87.99;99636.38;5133267;27;20645;-82
2021/11/01 19:08:45;;;;;;;5.13;2.92;;;;;;;8.36;88.22;99651.78;5150245;27;20034;-82
2021/11/01 20:09:26;;;;;;;10.93;4.10;;;;;;;7.71;91.36;99682.13;5088860;27;20111;-82
2021/11/01 21:27:07;;;;;;;12.50;4.38;;;;;;;7.56;91.71;99696.09;5133971;27;20471;-83
2021/11/01 21:29:36;;;;;;;11.18;5.03;;;;;;;7.56;91.70;99709.38;5134252;27;20022;-83
2021/11/01 21:32:03;;;;;;;9.90;4.72;;;;;;;7.49;92.05;99705.75;5136061;27;20077;-82
2021/11/01 21:34:34;;;;;;;18.45;8.60;;;;;;;7.35;92.40;99687.81;5152343;27;20114;-83
2021/11/01 21:37:01;;;;;;;8.75;5.60;;;;;;;7.37;92.79;99699.94;5152571;27;20459;-83
2021/11/01 21:39:27;;;;;;;8.23;3.78;;;;;;;7.46;92.67;99719.34;5134058;27;20061;-83
2021/11/01 21:41:53;;;;;;;7.47;3.25;;;;;;;7.49;92.62;99724.34;5134398;27;20343;-83
2021/11/01 21:44:19;;;;;;;;;;;;;;;7.42;92.48;99706.56;5134535;27;20432;-83
2021/11/01 21:46:44;;;;;;;;;;;;;;;7.34;92.58;99702.91;5153077;27;20106;-82
2021/11/01 21:49:10;;;;;;;10.70;2.83;;;;;;;7.27;92.90;99690.47;5134367;27;19998;-83
2021/11/01 21:51:39;;;;;;;8.33;3.23;;;;;;;7.23;93.60;99702.41;5134400;27;20359;-83
2021/11/01 21:56:39;;;;;;;6.47;3.50;;;;;;;7.19;94.05;99726.66;5134410;27;20379;-83
2021/11/01 22:10:00;;;;;;;9.77;3.25;;;;;;;7.26;94.22;99721.50;5152155;27;20443;-83